Terminal Aerodrome Forecast
Issued by NWS Portland, ME

Home | Current Version | Previous Version | Text Only | Print | Product List | Glossary On
Versions: 1 2 3 4 5 6 7 8 9 10 11 12 13 14 15 16 17 18 19 20 21 22 23 24
000
FTUS41 KGYX 230132 AAA
TAFPWM
TAF AMD
KPWM 230132Z 2302/2324 33008KT P6SM SCT100
      TEMPO 2302/2304 BKN100
     FM230400 29010KT P6SM FEW120
     FM231300 31015G25KT P6SM SKC
     FM231600 30020G30KT P6SM FEW060=

USA.gov is the U.S. government's official web portal to all federal, state and local government web resources and services.